createdAt,value
2017-09-29T00:02:21.030Z,94.12
2017-09-29T00:04:49.345Z,94.36
2017-09-29T00:07:17.663Z,94.52
2017-09-29T00:09:45.999Z,94.51
2017-09-29T00:12:14.327Z,94.31
2017-09-29T00:14:42.670Z,94.45
2017-09-29T00:17:11.755Z,94.51
2017-09-29T00:19:40.084Z,94.51
2017-09-29T00:22:08.406Z,94.41
2017-09-29T00:24:36.720Z,94.13
2017-09-29T00:27:05.282Z,93.44
2017-09-29T00:29:34.355Z,93.57
2017-09-29T00:32:02.673Z,93.81
2017-09-29T00:34:31.759Z,93.68
2017-09-29T00:37:00.832Z,93.48
2017-09-29T00:39:29.162Z,92.99
2017-09-29T00:41:57.477Z,92.95
2017-09-29T00:44:25.798Z,92.94
2017-09-29T00:46:54.117Z,93.04
2017-09-29T00:49:22.449Z,93.00
2017-09-29T00:51:51.586Z,93.44
2017-09-29T00:54:19.890Z,93.87
2017-09-29T00:56:48.199Z,93.45
2017-09-29T00:59:17.321Z,93.46
2017-09-29T01:01:45.633Z,93.39
2017-09-29T01:04:13.967Z,93.71
2017-09-29T01:06:42.295Z,93.76
2017-09-29T01:09:10.630Z,93.82
2017-09-29T01:11:38.965Z,94.10
2017-09-29T01:14:08.076Z,94.08
2017-09-29T01:16:37.190Z,94.22
2017-09-29T01:19:05.501Z,94.18
2017-09-29T01:21:33.811Z,94.25
2017-09-29T01:24:02.127Z,94.11
2017-09-29T01:26:30.452Z,93.86
2017-09-29T01:28:58.846Z,93.73
2017-09-29T01:31:27.932Z,93.97
2017-09-29T01:33:56.239Z,93.78
2017-09-29T01:36:24.578Z,93.80
2017-09-29T01:38:52.885Z,93.69
2017-09-29T01:41:22.021Z,93.43
2017-09-29T01:43:50.344Z,93.36
2017-09-29T01:46:18.672Z,93.41
2017-09-29T01:48:47.016Z,93.66
2017-09-29T01:51:16.106Z,93.53
2017-09-29T01:53:45.221Z,93.74
2017-09-29T01:56:13.533Z,94.33
2017-09-29T01:58:41.855Z,94.47
2017-09-29T02:01:10.955Z,94.48
2017-09-29T02:03:40.039Z,94.51
2017-09-29T02:06:09.148Z,94.41
2017-09-29T02:08:38.236Z,94.14
2017-09-29T02:11:07.334Z,94.10
2017-09-29T02:13:36.461Z,94.05
2017-09-29T02:16:04.762Z,93.95
2017-09-29T02:18:33.110Z,93.70
2017-09-29T02:21:01.417Z,93.44
2017-09-29T02:23:29.735Z,93.57
2017-09-29T02:25:58.869Z,93.65
2017-09-29T02:28:27.178Z,93.65
2017-09-29T02:30:55.522Z,93.59
2017-09-29T02:33:23.830Z,93.71
2017-09-29T02:35:52.138Z,94.03
2017-09-29T02:38:21.234Z,94.28
2017-09-29T02:40:50.310Z,94.08
2017-09-29T02:43:18.646Z,94.14
2017-09-29T02:45:46.951Z,94.01
2017-09-29T02:48:15.258Z,94.16
2017-09-29T02:50:43.571Z,94.04
2017-09-29T02:53:11.881Z,94.00
2017-09-29T02:55:40.231Z,94.00
2017-09-29T02:58:11.137Z,93.92
2017-09-29T03:00:42.045Z,94.02
2017-09-29T03:03:13.678Z,93.78
2017-09-29T03:05:44.369Z,93.68
2017-09-29T03:08:13.475Z,93.44
2017-09-29T03:10:41.784Z,93.06
2017-09-29T03:13:10.103Z,92.90
2017-09-29T03:15:38.408Z,92.71
2017-09-29T03:18:06.755Z,92.94
2017-09-29T03:20:35.065Z,93.07
2017-09-29T03:23:03.376Z,92.83
2017-09-29T03:25:31.701Z,92.92
2017-09-29T03:28:00.769Z,93.19
2017-09-29T03:30:29.106Z,92.99
2017-09-29T03:32:57.421Z,92.78
2017-09-29T03:35:25.729Z,92.93
2017-09-29T03:37:54.818Z,93.12
2017-09-29T03:40:23.902Z,93.47
2017-09-29T03:42:52.249Z,93.43
2017-09-29T03:45:20.558Z,93.14
2017-09-29T03:47:48.869Z,93.16
2017-09-29T03:50:19.395Z,93.32
2017-09-29T03:52:49.253Z,93.32
2017-09-29T03:55:20.538Z,93.29
2017-09-29T03:57:51.306Z,93.34
2017-09-29T04:00:19.631Z,93.45
2017-09-29T04:02:47.935Z,93.35
2017-09-29T04:05:17.042Z,93.40
2017-09-29T04:07:45.421Z,93.30
2017-09-29T04:10:14.484Z,93.40
2017-09-29T04:12:42.801Z,93.20
2017-09-29T04:15:11.107Z,93.07
2017-09-29T04:17:39.446Z,92.81
2017-09-29T04:20:07.769Z,92.83
2017-09-29T04:22:36.084Z,92.86
2017-09-29T04:25:05.194Z,92.79
2017-09-29T04:27:33.513Z,92.49
2017-09-29T04:30:01.889Z,92.35
2017-09-29T04:32:30.202Z,92.38
2017-09-29T04:34:58.534Z,92.36
2017-09-29T04:37:26.865Z,92.46
2017-09-29T04:39:55.945Z,92.39
2017-09-29T04:42:24.364Z,92.32
2017-09-29T04:44:52.677Z,92.47
2017-09-29T04:47:21.019Z,92.21
2017-09-29T04:49:49.401Z,92.39
2017-09-29T04:52:17.730Z,92.50
2017-09-29T04:54:46.115Z,92.88
2017-09-29T04:57:14.430Z,92.74
2017-09-29T04:59:42.762Z,92.39
2017-09-29T05:02:11.074Z,92.28
2017-09-29T05:04:40.197Z,92.73
2017-09-29T05:07:08.542Z,92.32
2017-09-29T05:09:37.616Z,92.23
2017-09-29T05:12:05.914Z,92.69
2017-09-29T05:14:34.986Z,92.55
2017-09-29T05:17:03.290Z,92.35
2017-09-29T05:19:32.394Z,92.25
2017-09-29T05:22:01.471Z,92.27
2017-09-29T05:24:30.550Z,91.98
2017-09-29T05:26:58.865Z,91.92
2017-09-29T05:29:27.169Z,91.94
2017-09-29T05:31:55.505Z,91.87
2017-09-29T05:34:24.569Z,91.78
2017-09-29T05:36:52.874Z,91.39
2017-09-29T05:39:22.004Z,91.32
2017-09-29T05:41:50.310Z,91.18
2017-09-29T05:44:18.641Z,90.62
2017-09-29T05:46:46.948Z,90.69
2017-09-29T05:49:15.253Z,90.41
2017-09-29T05:51:43.673Z,90.09
2017-09-29T05:54:11.981Z,90.02
2017-09-29T05:56:40.339Z,89.63
2017-09-29T05:59:08.644Z,89.51
2017-09-29T06:01:36.957Z,89.32
2017-09-29T06:04:05.269Z,88.99
2017-09-29T06:06:33.589Z,88.49
2017-09-29T06:09:01.953Z,88.08
2017-09-29T06:11:30.267Z,87.54
2017-09-29T06:13:58.586Z,87.24
2017-09-29T06:16:26.901Z,86.63
2017-09-29T06:18:55.210Z,86.70
2017-09-29T06:21:24.305Z,86.43
2017-09-29T06:23:53.381Z,86.07
2017-09-29T06:26:21.685Z,85.78
2017-09-29T06:28:50.765Z,85.48
2017-09-29T06:31:19.078Z,84.57
2017-09-29T06:33:47.420Z,84.69
2017-09-29T06:36:15.730Z,83.51
2017-09-29T06:38:44.038Z,82.71
2017-09-29T06:41:12.350Z,82.53
2017-09-29T06:43:40.662Z,82.48
2017-09-29T06:46:08.991Z,82.75
2017-09-29T06:48:37.295Z,82.14
2017-09-29T06:51:06.365Z,82.48
2017-09-29T06:53:34.690Z,82.16
2017-09-29T06:56:02.999Z,80.48
2017-09-29T06:58:31.334Z,79.65
2017-09-29T07:00:59.644Z,79.48
2017-09-29T07:03:27.954Z,80.94
2017-09-29T07:05:56.274Z,79.70
2017-09-29T07:08:24.582Z,79.83
2017-09-29T07:10:52.922Z,80.25
2017-09-29T07:13:21.243Z,79.68
2017-09-29T07:15:49.545Z,79.95
2017-09-29T07:18:17.857Z,79.75
2017-09-29T07:20:46.166Z,79.32
2017-09-29T07:23:15.280Z,79.63
2017-09-29T07:25:43.918Z,77.83
2017-09-29T07:28:13.641Z,77.44
2017-09-29T07:30:42.417Z,76.30
2017-09-29T07:33:10.721Z,76.71
2017-09-29T07:35:39.060Z,76.26
2017-09-29T07:38:08.133Z,75.34
2017-09-29T07:40:36.437Z,74.19
2017-09-29T07:43:04.756Z,74.82
2017-09-29T07:45:33.065Z,75.11
2017-09-29T07:48:01.407Z,74.58
2017-09-29T07:50:29.731Z,73.48
2017-09-29T07:52:58.805Z,71.96
2017-09-29T07:55:27.131Z,72.32
2017-09-29T07:57:55.438Z,72.30
2017-09-29T08:00:23.770Z,71.26
2017-09-29T08:02:52.082Z,70.81
2017-09-29T08:05:20.389Z,70.97
2017-09-29T08:07:48.701Z,68.87
2017-09-29T08:10:17.769Z,67.90
2017-09-29T08:12:46.105Z,66.92
2017-09-29T08:15:14.414Z,67.42
2017-09-29T08:17:42.729Z,66.72
2017-09-29T08:20:11.040Z,67.05
2017-09-29T08:22:39.342Z,66.10
2017-09-29T08:25:07.689Z,65.41
2017-09-29T08:27:35.999Z,64.23
2017-09-29T08:30:04.301Z,65.05
2017-09-29T08:32:33.395Z,63.88
2017-09-29T08:35:02.486Z,63.57
2017-09-29T08:37:31.601Z,63.90
2017-09-29T08:39:59.906Z,63.92
2017-09-29T08:42:28.218Z,64.36
2017-09-29T08:44:56.533Z,65.10
2017-09-29T08:47:25.609Z,66.19
2017-09-29T08:49:53.945Z,66.24
2017-09-29T08:52:22.250Z,67.14
2017-09-29T08:54:50.549Z,65.83
2017-09-29T08:57:19.635Z,65.83
2017-09-29T08:59:48.709Z,65.19
2017-09-29T09:02:17.056Z,65.95
2017-09-29T09:04:45.365Z,66.50
2017-09-29T09:07:13.694Z,65.72
2017-09-29T09:09:42.005Z,64.53
2017-09-29T09:12:10.378Z,64.67
2017-09-29T09:14:39.050Z,63.74
2017-09-29T09:17:08.193Z,62.49
2017-09-29T09:19:36.501Z,60.67
2017-09-29T09:22:04.814Z,52.87
2017-09-29T09:24:33.116Z,45.30
2017-09-29T09:27:01.450Z,40.61
2017-09-29T09:29:29.759Z,39.12
2017-09-29T09:31:58.061Z,38.79
2017-09-29T09:34:27.160Z,37.87
2017-09-29T09:36:56.255Z,37.34
2017-09-29T09:39:24.598Z,35.72
2017-09-29T09:41:52.893Z,35.34
2017-09-29T09:44:21.233Z,39.37
2017-09-29T09:46:49.545Z,38.32
2017-09-29T09:49:17.861Z,39.53
2017-09-29T09:51:46.956Z,37.61
2017-09-29T09:54:16.025Z,36.06
2017-09-29T09:56:44.351Z,39.51
2017-09-29T09:59:12.661Z,37.28
2017-09-29T10:01:40.993Z,41.46
2017-09-29T10:04:09.322Z,39.23
2017-09-29T10:06:37.630Z,40.21
2017-09-29T10:09:06.702Z,38.25
2017-09-29T10:11:35.021Z,41.45
2017-09-29T10:14:03.322Z,39.81
2017-09-29T10:16:31.681Z,41.56
2017-09-29T10:18:59.976Z,41.82
2017-09-29T10:21:28.277Z,43.20
2017-09-29T10:23:57.358Z,43.32
2017-09-29T10:26:25.660Z,44.27
2017-09-29T10:28:54.002Z,43.69
2017-09-29T10:31:22.318Z,44.50
2017-09-29T10:33:51.411Z,42.23
2017-09-29T10:36:19.732Z,41.79
2017-09-29T10:38:48.050Z,42.19
2017-09-29T10:41:16.386Z,40.92
2017-09-29T10:43:44.680Z,43.12
2017-09-29T10:46:12.980Z,44.35
2017-09-29T10:48:41.289Z,43.65
2017-09-29T10:51:10.360Z,44.06
2017-09-29T10:53:38.702Z,43.79
2017-09-29T10:56:07.005Z,45.36
2017-09-29T10:58:35.358Z,44.55
2017-09-29T11:01:03.672Z,45.79
2017-09-29T11:03:31.981Z,46.01
2017-09-29T11:06:01.093Z,47.28
2017-09-29T11:08:29.430Z,48.47
2017-09-29T11:10:57.739Z,49.88
2017-09-29T11:13:26.821Z,53.22
2017-09-29T11:15:55.896Z,55.23
2017-09-29T11:18:24.234Z,56.16
2017-09-29T11:20:52.533Z,55.47
2017-09-29T11:23:20.838Z,55.59
2017-09-29T11:25:49.156Z,54.94
2017-09-29T11:28:17.473Z,53.83
2017-09-29T11:30:45.819Z,53.61
2017-09-29T11:33:14.130Z,53.19
2017-09-29T11:35:42.453Z,52.72
2017-09-29T11:38:10.769Z,50.86
2017-09-29T11:40:39.078Z,51.98
2017-09-29T11:43:07.415Z,53.21
2017-09-29T11:45:35.714Z,53.37
2017-09-29T11:48:04.022Z,53.94
2017-09-29T11:50:33.098Z,54.43
2017-09-29T11:53:01.410Z,54.34
2017-09-29T11:55:29.754Z,53.90
2017-09-29T11:57:58.069Z,54.43
2017-09-29T12:00:26.375Z,53.48
2017-09-29T12:02:54.689Z,53.41
2017-09-29T12:05:22.993Z,53.92
2017-09-29T12:07:52.097Z,53.58
2017-09-29T12:10:20.405Z,52.89
2017-09-29T12:12:48.710Z,53.77
2017-09-29T12:15:17.032Z,52.77
2017-09-29T12:17:45.334Z,52.64
2017-09-29T12:20:13.674Z,52.41
2017-09-29T12:22:42.740Z,52.45
2017-09-29T12:25:11.060Z,51.89
2017-09-29T12:27:39.389Z,52.31
2017-09-29T12:30:07.729Z,49.46
2017-09-29T12:32:36.082Z,50.48
2017-09-29T12:35:05.161Z,50.67
2017-09-29T12:37:34.237Z,49.72
2017-09-29T12:40:02.553Z,49.45
2017-09-29T12:42:30.867Z,49.43
2017-09-29T12:44:59.223Z,48.92
2017-09-29T12:47:27.531Z,49.20
2017-09-29T12:49:55.854Z,49.20
2017-09-29T12:52:24.939Z,49.72
2017-09-29T12:54:53.253Z,48.74
2017-09-29T12:57:21.590Z,48.36
2017-09-29T12:59:49.913Z,49.25
2017-09-29T13:02:18.234Z,48.85
2017-09-29T13:04:46.557Z,48.21
2017-09-29T13:07:14.866Z,48.87
2017-09-29T13:09:43.970Z,48.35
2017-09-29T13:12:12.282Z,50.16
2017-09-29T13:14:41.349Z,49.71
2017-09-29T13:17:09.660Z,49.32
2017-09-29T13:19:38.733Z,49.86
2017-09-29T13:22:07.067Z,50.00
2017-09-29T13:24:35.405Z,49.13
2017-09-29T13:27:04.478Z,50.89
2017-09-29T13:29:32.794Z,48.80
2017-09-29T13:32:01.096Z,49.79
2017-09-29T13:34:29.445Z,49.28
2017-09-29T13:36:57.756Z,49.09
2017-09-29T13:39:26.068Z,48.40
2017-09-29T13:41:54.377Z,48.27
2017-09-29T13:44:22.687Z,47.98
2017-09-29T13:46:51.020Z,47.24
2017-09-29T13:49:20.354Z,47.47
2017-09-29T13:51:48.669Z,46.93
2017-09-29T13:54:18.493Z,47.05
2017-09-29T13:56:46.799Z,47.44
2017-09-29T13:59:15.148Z,47.90
2017-09-29T14:01:43.472Z,49.07
2017-09-29T14:04:11.777Z,49.18
2017-09-29T14:06:40.090Z,49.03
2017-09-29T14:09:09.167Z,49.35
2017-09-29T14:11:37.502Z,48.71
2017-09-29T14:14:05.805Z,47.72
2017-09-29T14:16:34.105Z,48.14
2017-09-29T14:19:02.422Z,49.11
2017-09-29T14:21:30.732Z,48.95
2017-09-29T14:23:59.065Z,49.57
2017-09-29T14:26:28.129Z,49.45
2017-09-29T14:28:56.440Z,50.13
2017-09-29T14:31:24.752Z,50.03
2017-09-29T14:33:53.843Z,49.55
2017-09-29T14:36:22.173Z,49.85
2017-09-29T14:38:51.242Z,49.95
2017-09-29T14:41:19.548Z,49.39
2017-09-29T14:43:48.632Z,50.29
2017-09-29T14:46:16.942Z,49.80
2017-09-29T14:48:45.278Z,49.29
2017-09-29T14:51:13.582Z,48.77
2017-09-29T14:53:42.681Z,49.93
2017-09-29T14:56:11.009Z,50.12
2017-09-29T14:58:39.311Z,49.62
2017-09-29T15:01:07.649Z,49.37
2017-09-29T15:03:35.965Z,49.61
2017-09-29T15:06:04.269Z,49.94
2017-09-29T15:08:33.348Z,50.23
2017-09-29T15:11:02.432Z,50.12
2017-09-29T15:13:30.812Z,50.12
2017-09-29T15:15:59.105Z,49.78
2017-09-29T15:18:28.169Z,50.23
2017-09-29T15:20:56.492Z,51.38
2017-09-29T15:23:24.802Z,52.31
2017-09-29T15:25:53.142Z,52.33
2017-09-29T15:28:21.461Z,52.83
2017-09-29T15:30:49.759Z,52.98
2017-09-29T15:33:18.065Z,52.54
2017-09-29T15:35:47.141Z,53.49
2017-09-29T15:38:15.468Z,54.35
2017-09-29T15:40:43.776Z,54.60
2017-09-29T15:43:12.077Z,53.80
2017-09-29T15:45:40.395Z,54.14
2017-09-29T15:48:08.704Z,54.35
2017-09-29T15:50:37.044Z,55.02
2017-09-29T15:53:05.349Z,55.47
2017-09-29T15:55:34.416Z,55.70
2017-09-29T15:58:02.731Z,56.12
2017-09-29T16:00:31.046Z,56.10
2017-09-29T16:03:00.153Z,56.40
2017-09-29T16:05:29.220Z,56.46
2017-09-29T16:07:57.525Z,56.47
2017-09-29T16:10:26.609Z,56.85
2017-09-29T16:12:55.992Z,57.15
2017-09-29T16:15:24.334Z,57.54
2017-09-29T16:17:52.632Z,58.23
2017-09-29T16:20:20.940Z,58.86
2017-09-29T16:22:50.033Z,59.63
2017-09-29T16:25:18.334Z,60.16
2017-09-29T16:27:46.675Z,60.49
2017-09-29T16:30:14.981Z,60.99
2017-09-29T16:32:44.061Z,61.57
2017-09-29T16:35:13.145Z,61.85
2017-09-29T16:37:41.474Z,62.24
2017-09-29T16:40:09.822Z,62.76
2017-09-29T16:42:38.948Z,63.16
2017-09-29T16:45:07.284Z,63.30
2017-09-29T16:47:35.597Z,63.85
2017-09-29T16:50:03.919Z,64.62
2017-09-29T16:52:32.242Z,65.03
2017-09-29T16:55:00.582Z,65.55
2017-09-29T16:57:28.910Z,65.97
2017-09-29T16:59:57.233Z,66.40
2017-09-29T17:02:25.573Z,66.96
2017-09-29T17:04:53.890Z,67.23
2017-09-29T17:07:22.197Z,67.77
2017-09-29T17:09:51.272Z,68.04
2017-09-29T17:12:19.578Z,68.51
2017-09-29T17:14:47.896Z,68.60
2017-09-29T17:17:16.193Z,69.14
2017-09-29T17:19:44.508Z,68.99
2017-09-29T17:22:12.812Z,69.01
2017-09-29T17:24:41.133Z,69.47
2017-09-29T17:27:09.438Z,69.64
2017-09-29T17:29:37.789Z,69.77
2017-09-29T17:32:06.128Z,70.32
2017-09-29T17:34:34.430Z,70.31
2017-09-29T17:37:02.747Z,70.37
2017-09-29T17:39:31.082Z,70.60
2017-09-29T17:41:59.433Z,70.72
2017-09-29T17:44:27.742Z,71.07
2017-09-29T17:46:56.056Z,71.43
2017-09-29T17:49:24.377Z,71.57
2017-09-29T17:51:52.689Z,71.77
2017-09-29T17:54:21.006Z,71.99
2017-09-29T17:56:49.321Z,72.05
2017-09-29T17:59:17.637Z,72.29
2017-09-29T18:01:46.720Z,72.44
2017-09-29T18:04:15.042Z,72.71
2017-09-29T18:06:43.345Z,75.90
2017-09-29T18:09:11.677Z,72.59
2017-09-29T18:11:39.984Z,72.56
2017-09-29T18:14:08.296Z,72.79
2017-09-29T18:16:36.625Z,72.80
2017-09-29T18:19:04.937Z,72.95
2017-09-29T18:21:34.066Z,73.07
2017-09-29T18:24:03.136Z,73.41
2017-09-29T18:26:31.481Z,73.53
2017-09-29T18:28:59.789Z,73.55
2017-09-29T18:31:28.102Z,73.51
2017-09-29T18:33:56.443Z,74.07
2017-09-29T18:36:24.750Z,74.32
2017-09-29T18:38:53.830Z,73.06
2017-09-29T18:41:34.638Z,73.32
2017-09-29T18:47:07.793Z,76.18
2017-09-29T18:49:36.110Z,73.28
2017-09-29T18:52:05.203Z,72.43
2017-09-29T18:54:34.303Z,72.28
2017-09-29T18:57:02.609Z,72.38
2017-09-29T18:59:30.921Z,72.68
2017-09-29T19:01:59.233Z,72.70
2017-09-29T19:04:27.567Z,72.75
2017-09-29T19:06:55.903Z,73.06
2017-09-29T19:09:24.210Z,73.21
2017-09-29T19:11:52.525Z,73.40
2017-09-29T19:14:21.600Z,73.60
2017-09-29T19:16:49.937Z,73.27
2017-09-29T19:19:18.242Z,73.52
2017-09-29T19:21:46.572Z,73.78
2017-09-29T19:24:14.901Z,73.46
2017-09-29T19:26:43.218Z,73.44
2017-09-29T19:29:12.309Z,73.57
2017-09-29T19:31:40.639Z,73.85
2017-09-29T19:34:08.964Z,73.65
2017-09-29T19:36:38.029Z,73.60
2017-09-29T19:39:06.377Z,73.88
2017-09-29T19:41:34.724Z,73.84
2017-09-29T19:44:03.068Z,73.83
2017-09-29T19:46:31.388Z,73.83
2017-09-29T19:48:59.700Z,74.14
2017-09-29T19:51:28.025Z,73.93
2017-09-29T19:53:57.102Z,73.80
2017-09-29T19:56:25.430Z,73.86
2017-09-29T19:58:53.753Z,73.33
2017-09-29T20:01:22.090Z,73.08
2017-09-29T20:03:50.394Z,73.22
2017-09-29T20:06:18.747Z,72.78
2017-09-29T20:08:47.065Z,72.72
2017-09-29T20:11:15.379Z,72.63
2017-09-29T20:13:43.736Z,72.53
2017-09-29T20:16:12.054Z,72.15
2017-09-29T20:18:40.368Z,72.14
2017-09-29T20:21:08.688Z,71.86
2017-09-29T20:23:37.014Z,71.27
2017-09-29T20:26:05.317Z,71.34
2017-09-29T20:28:33.647Z,71.42
2017-09-29T20:31:01.949Z,71.43
2017-09-29T20:33:30.280Z,71.59
2017-09-29T20:35:58.593Z,71.58
2017-09-29T20:38:26.947Z,71.09
2017-09-29T20:40:55.269Z,71.17
2017-09-29T20:43:23.565Z,71.33
2017-09-29T20:45:51.873Z,71.39
2017-09-29T20:48:20.185Z,71.47
2017-09-29T20:50:48.514Z,71.31
2017-09-29T20:53:16.822Z,71.47
2017-09-29T20:55:45.142Z,71.60
2017-09-29T20:58:13.457Z,71.51
2017-09-29T21:00:41.778Z,72.04
2017-09-29T21:03:10.117Z,71.94
2017-09-29T21:05:38.438Z,71.97
2017-09-29T21:08:06.757Z,72.18
2017-09-29T21:10:35.834Z,72.58
2017-09-29T21:13:04.911Z,72.68
2017-09-29T21:15:33.223Z,72.97
2017-09-29T21:18:01.565Z,73.12
2017-09-29T21:20:29.873Z,73.08
2017-09-29T21:22:58.196Z,73.10
2017-09-29T21:25:26.501Z,73.13
2017-09-29T21:27:54.835Z,73.38
2017-09-29T21:30:23.149Z,73.48
2017-09-29T21:32:51.477Z,73.69
2017-09-29T21:35:19.794Z,74.13
2017-09-29T21:37:48.114Z,74.43
2017-09-29T21:40:17.208Z,74.56
2017-09-29T21:42:46.301Z,74.94
2017-09-29T21:45:15.377Z,74.98
2017-09-29T21:47:43.735Z,75.28
2017-09-29T21:50:12.045Z,75.46
2017-09-29T21:52:41.120Z,75.56
2017-09-29T21:55:09.441Z,75.72
2017-09-29T21:57:37.765Z,75.96
2017-09-29T22:00:06.093Z,75.92
2017-09-29T22:02:34.417Z,76.11
2017-09-29T22:05:02.752Z,75.97
2017-09-29T22:07:31.064Z,76.04
2017-09-29T22:09:59.390Z,76.18
2017-09-29T22:12:28.469Z,76.50
2017-09-29T22:14:56.800Z,76.91
2017-09-29T22:17:25.108Z,77.71
2017-09-29T22:19:53.461Z,78.10
2017-09-29T22:22:21.791Z,78.34
2017-09-29T22:24:50.865Z,78.91
2017-09-29T22:27:19.194Z,79.39
2017-09-29T22:29:47.504Z,79.18
2017-09-29T22:32:15.832Z,79.27
2017-09-29T22:34:44.909Z,79.47
2017-09-29T22:37:14.005Z,79.28
2017-09-29T22:39:42.329Z,79.36
2017-09-29T22:42:10.653Z,79.37
2017-09-29T22:44:38.969Z,78.89
2017-09-29T22:47:08.010Z,79.08
2017-09-29T22:49:36.336Z,78.86
2017-09-29T22:52:04.645Z,79.01
2017-09-29T22:54:32.956Z,79.10
2017-09-29T22:57:01.267Z,79.14
2017-09-29T22:59:29.588Z,79.22
2017-09-29T23:01:57.898Z,79.21
2017-09-29T23:04:27.016Z,79.19
2017-09-29T23:06:55.330Z,79.20
2017-09-29T23:09:23.657Z,79.02
2017-09-29T23:11:52.732Z,79.27
2017-09-29T23:14:21.053Z,79.35
2017-09-29T23:16:49.365Z,79.67
2017-09-29T23:19:17.714Z,79.54
2017-09-29T23:21:46.018Z,79.63
2017-09-29T23:24:14.368Z,79.66
2017-09-29T23:26:42.698Z,79.76
2017-09-29T23:29:11.797Z,79.77
2017-09-29T23:31:40.120Z,79.81
2017-09-29T23:34:08.444Z,79.82
2017-09-29T23:36:36.765Z,80.00
2017-09-29T23:39:05.073Z,80.03
2017-09-29T23:41:33.421Z,80.32
2017-09-29T23:44:01.746Z,80.19
2017-09-29T23:46:30.065Z,80.14
2017-09-29T23:48:59.154Z,80.47
2017-09-29T23:51:28.232Z,80.41
2017-09-29T23:53:56.564Z,80.33
2017-09-29T23:56:24.892Z,80.35
2017-09-29T23:58:53.254Z,80.84
